Time;durP1;ratioP1;P1;durP2;ratioP2;P2;SDS_P1;SDS_P2;PMS_P1;PMS_P2;Temp;Humidity;BMP_temperature;BMP_pressure;BME280_temperature;BME280_humidity;BME280_pressure;Samples;Min_cycle;Max_cycle;Signal;HPM_P1;HPM_P2
2021/12/23 00:01:42;;;;;;;36.22;32.20;;;-1.30;99.90;;;;;;5115108;28;20044;-81
2021/12/23 00:04:12;;;;;;;38.08;33.92;;;-1.20;99.90;;;;;;5099426;28;20036;-81
2021/12/23 00:06:39;;;;;;;38.97;34.58;;;-1.20;99.90;;;;;;5100540;28;20094;-82
2021/12/23 00:09:05;;;;;;;37.42;33.30;;;-1.20;99.90;;;;;;5095299;28;20043;-81
2021/12/23 00:11:31;;;;;;;39.55;33.67;;;-1.20;99.90;;;;;;5092571;28;20044;-78
2021/12/23 00:14:02;;;;;;;38.83;33.30;;;-1.20;99.90;;;;;;5095121;28;20040;-79
2021/12/23 00:24:30;;;;;;;36.75;31.23;;;-1.10;99.90;;;;;;5081918;28;20044;-76
2021/12/23 00:26:55;;;;;;;35.53;31.63;;;-1.20;99.90;;;;;;5094514;28;20048;-81
2021/12/23 00:29:21;;;;;;;35.22;31.17;;;-1.10;99.90;;;;;;5099614;28;20533;-81
2021/12/23 00:31:47;;;;;;;37.58;31.92;;;-1.10;99.90;;;;;;5114521;28;20047;-82
2021/12/23 00:34:13;;;;;;;36.25;31.80;;;-1.10;99.90;;;;;;5113559;28;20246;-81
2021/12/23 00:36:41;;;;;;;34.42;30.55;;;-1.10;99.90;;;;;;5114155;28;20044;-81
2021/12/23 00:39:08;;;;;;;36.10;31.25;;;-1.10;99.90;;;;;;5109901;28;20040;-82
2021/12/23 00:41:34;;;;;;;34.30;29.90;;;-1.00;99.90;;;;;;5094151;28;20056;-75
2021/12/23 00:44:00;;;;;;;34.72;30.38;;;-1.00;99.90;;;;;;5096687;28;20126;-82
2021/12/23 00:46:26;;;;;;;33.10;29.52;;;-1.00;99.90;;;;;;5115097;28;20043;-81
2021/12/23 00:48:51;;;;;;;32.30;28.67;;;-1.00;99.90;;;;;;5113460;28;20055;-81
2021/12/23 00:51:19;;;;;;;31.52;28.08;;;-1.00;99.90;;;;;;5093968;28;20381;-81
2021/12/23 00:53:47;;;;;;;31.80;27.38;;;-1.00;99.90;;;;;;5093677;28;20048;-81
2021/12/23 00:56:13;;;;;;;30.23;27.00;;;-0.90;99.90;;;;;;5100921;28;20051;-82
2021/12/23 00:58:38;;;;;;;30.40;26.60;;;-0.90;99.90;;;;;;5093583;28;20044;-81
2021/12/23 01:01:05;;;;;;;30.63;27.30;;;-0.90;99.90;;;;;;5094131;28;20103;-81
2021/12/23 01:03:31;;;;;;;33.03;28.42;;;-0.90;99.90;;;;;;5094146;28;20052;-81
2021/12/23 01:05:57;;;;;;;32.88;28.63;;;-0.80;99.90;;;;;;5103782;28;20032;-81
2021/12/23 01:08:24;;;;;;;34.88;29.83;;;-0.90;99.90;;;;;;5093600;28;20059;-78
2021/12/23 01:10:55;;;;;;;33.90;29.45;;;-0.90;99.90;;;;;;5092396;28;20044;-81
2021/12/23 01:13:25;;;;;;;35.42;29.33;;;-0.90;99.90;;;;;;5094068;28;20392;-81
2021/12/23 01:16:13;;;;;;;37.47;30.35;;;-0.90;99.90;;;;;;5093348;28;20055;-81
2021/12/23 01:18:44;;;;;;;33.28;28.75;;;-0.90;99.90;;;;;;5093401;28;20047;-79
2021/12/23 01:21:17;;;;;;;32.88;28.95;;;-0.90;99.90;;;;;;5097414;28;20047;-80
2021/12/23 01:23:51;;;;;;;33.97;28.55;;;-0.90;99.90;;;;;;5092878;28;20100;-81
2021/12/23 01:26:19;;;;;;;33.00;28.88;;;-0.80;99.90;;;;;;5095601;28;20052;-82
2021/12/23 01:28:47;;;;;;;32.13;28.55;;;-0.80;99.90;;;;;;5092980;28;20044;-81
2021/12/23 01:31:13;;;;;;;34.00;29.55;;;-0.80;99.90;;;;;;5101254;28;20066;-81
2021/12/23 01:33:39;;;;;;;33.03;28.63;;;-0.80;99.90;;;;;;5092295;28;20040;-77
2021/12/23 01:36:05;;;;;;;33.75;28.40;;;-0.80;99.90;;;;;;5092839;28;20040;-81
2021/12/23 01:38:31;;;;;;;33.92;28.75;;;-0.80;99.90;;;;;;5093617;28;20044;-81
2021/12/23 01:40:57;;;;;;;34.95;30.70;;;-0.80;99.90;;;;;;5092045;28;20035;-81
2021/12/23 01:43:22;;;;;;;35.35;29.42;;;-0.80;99.90;;;;;;5093364;28;20108;-81
2021/12/23 01:45:49;;;;;;;33.08;28.15;;;-0.80;99.90;;;;;;5092984;28;20048;-81
2021/12/23 01:48:17;;;;;;;32.45;27.65;;;-0.80;99.90;;;;;;5093494;28;20385;-82
2021/12/23 01:50:43;;;;;;;30.88;27.55;;;-0.70;99.90;;;;;;5104809;28;20123;-76
2021/12/23 01:53:10;;;;;;;32.92;27.63;;;-0.70;99.90;;;;;;5110761;28;20396;-82
2021/12/23 01:55:37;;;;;;;33.40;28.33;;;-0.70;99.90;;;;;;5103696;28;20069;-82
2021/12/23 01:58:05;;;;;;;32.88;27.25;;;-0.70;99.90;;;;;;5112968;28;20639;-81
2021/12/23 02:00:34;;;;;;;32.80;28.10;;;-0.70;99.90;;;;;;5101642;28;20040;-81
2021/12/23 02:03:00;;;;;;;35.13;30.00;;;-0.70;99.90;;;;;;5092321;28;20043;-82
2021/12/23 02:05:26;;;;;;;33.70;29.45;;;-0.70;99.90;;;;;;5104856;28;20396;-81
2021/12/23 02:07:53;;;;;;;31.73;27.25;;;-0.70;99.90;;;;;;5112806;28;20047;-81
2021/12/23 02:10:18;;;;;;;32.58;27.30;;;-0.70;99.90;;;;;;5101964;28;20074;-81
2021/12/23 02:12:47;;;;;;;31.83;27.75;;;-0.70;99.90;;;;;;5094888;28;20062;-76
2021/12/23 02:15:14;;;;;;;34.03;29.23;;;-0.70;99.90;;;;;;5095109;28;20048;-82
2021/12/23 02:17:40;;;;;;;33.97;27.42;;;-0.70;99.90;;;;;;5093711;28;20392;-81
2021/12/23 02:20:19;;;;;;;30.92;27.20;;;-0.70;99.90;;;;;;5105677;28;20036;-81
2021/12/23 02:22:45;;;;;;;31.77;28.23;;;-0.70;99.90;;;;;;5095514;28;20044;-76
2021/12/23 02:25:12;;;;;;;31.77;27.45;;;-0.70;99.90;;;;;;5112933;28;20051;-81
2021/12/23 02:27:38;;;;;;;31.42;27.17;;;-0.70;99.90;;;;;;5111009;28;20048;-82
2021/12/23 02:30:08;;;;;;;32.33;28.33;;;-0.70;99.90;;;;;;5092046;28;20048;-78
2021/12/23 02:32:35;;;;;;;31.05;27.52;;;-0.60;99.90;;;;;;5091681;28;20052;-81
2021/12/23 02:35:02;;;;;;;33.53;28.10;;;-0.70;99.90;;;;;;5092144;28;20052;-82
2021/12/23 02:37:27;;;;;;;33.92;28.83;;;-0.70;99.90;;;;;;5092646;28;20085;-79
2021/12/23 02:39:53;;;;;;;31.63;28.20;;;-0.70;99.90;;;;;;5102321;28;20590;-80
2021/12/23 02:42:19;;;;;;;30.67;27.00;;;-0.70;99.90;;;;;;5091832;28;20079;-81
2021/12/23 02:44:44;;;;;;;30.60;27.30;;;-0.70;99.90;;;;;;5099105;28;20048;-82
2021/12/23 02:47:10;;;;;;;29.42;26.25;;;-0.70;99.90;;;;;;5098296;28;20561;-82
2021/12/23 02:49:36;;;;;;;30.60;26.48;;;-0.70;99.90;;;;;;5099059;28;20455;-82
2021/12/23 02:52:01;;;;;;;29.27;26.10;;;-0.70;99.90;;;;;;5098080;28;20050;-82
2021/12/23 02:54:28;;;;;;;28.27;25.25;;;-0.70;99.90;;;;;;5116197;28;20054;-81
2021/12/23 02:56:53;;;;;;;30.50;25.50;;;-0.70;99.90;;;;;;5119116;27;20043;-82
2021/12/23 02:59:19;;;;;;;28.35;25.27;;;-0.70;99.90;;;;;;5102902;27;20117;-81
2021/12/23 03:01:45;;;;;;;28.25;25.33;;;-0.70;99.90;;;;;;5098938;28;20110;-82
2021/12/23 03:04:11;;;;;;;29.95;25.63;;;-0.70;99.90;;;;;;5098455;28;20040;-82
2021/12/23 03:06:37;;;;;;;29.48;26.27;;;-0.70;99.90;;;;;;5099129;28;20112;-82
2021/12/23 03:09:04;;;;;;;30.92;27.63;;;-0.70;99.90;;;;;;5107269;28;20036;-81
2021/12/23 03:11:31;;;;;;;28.92;25.77;;;-0.70;99.90;;;;;;5098607;28;20443;-81
2021/12/23 03:13:58;;;;;;;30.60;27.05;;;-0.70;99.90;;;;;;5098661;28;20044;-81
2021/12/23 03:16:28;;;;;;;32.65;27.30;;;-0.70;99.90;;;;;;5098991;28;20087;-81
2021/12/23 03:18:54;;;;;;;31.55;28.15;;;-0.70;99.90;;;;;;5099102;28;20052;-76
2021/12/23 03:21:20;;;;;;;29.92;26.67;;;-0.70;99.90;;;;;;5098661;28;20427;-81
2021/12/23 03:23:46;;;;;;;31.08;26.80;;;-0.60;99.90;;;;;;5098651;28;20054;-82
2021/12/23 03:26:11;;;;;;;29.40;26.20;;;-0.60;99.90;;;;;;5098415;28;20143;-81
2021/12/23 03:28:38;;;;;;;28.98;25.38;;;-0.60;99.90;;;;;;5104781;28;20043;-82
2021/12/23 03:31:04;;;;;;;29.23;26.10;;;-0.60;99.90;;;;;;5118766;27;20047;-82
2021/12/23 03:33:30;;;;;;;27.83;24.83;;;-0.60;99.90;;;;;;5114884;27;20121;-81
2021/12/23 03:35:56;;;;;;;27.13;24.23;;;-0.70;99.90;;;;;;5118890;27;20043;-76
2021/12/23 03:38:25;;;;;;;27.33;24.42;;;-0.70;99.90;;;;;;5103388;27;20393;-82
2021/12/23 03:40:51;;;;;;;28.08;24.83;;;-0.70;99.90;;;;;;5098466;28;20047;-82
2021/12/23 03:43:17;;;;;;;27.83;24.83;;;-0.70;99.90;;;;;;5097997;28;20297;-81
2021/12/23 03:45:45;;;;;;;27.65;24.70;;;-0.70;99.90;;;;;;5098671;28;20055;-81
2021/12/23 03:48:13;;;;;;;28.02;25.02;;;-0.70;99.90;;;;;;5100257;28;20048;-82
2021/12/23 03:50:39;;;;;;;28.42;25.42;;;-0.60;99.90;;;;;;5107155;27;20048;-82
2021/12/23 03:53:05;;;;;;;29.70;25.80;;;-0.60;99.90;;;;;;5100254;28;20492;-81
2021/12/23 03:55:31;;;;;;;27.50;24.60;;;-0.60;99.90;;;;;;5095479;27;20040;-82
2021/12/23 03:57:57;;;;;;;28.38;25.27;;;-0.60;99.90;;;;;;5095267;28;20044;-76
2021/12/23 04:00:23;;;;;;;27.83;24.92;;;-0.60;99.90;;;;;;5099919;28;20495;-82
2021/12/23 04:02:51;;;;;;;28.88;25.83;;;-0.60;99.90;;;;;;5095422;28;20055;-82
2021/12/23 04:05:17;;;;;;;27.08;24.17;;;-0.60;99.90;;;;;;5106510;28;20048;-82
2021/12/23 04:07:44;;;;;;;29.85;25.15;;;-0.60;99.90;;;;;;5116007;27;20123;-82
2021/12/23 04:10:12;;;;;;;27.35;24.35;;;-0.60;99.90;;;;;;5099546;28;20589;-82
2021/12/23 04:12:38;;;;;;;28.15;24.95;;;-0.60;99.90;;;;;;5101048;27;20047;-83
2021/12/23 04:15:04;;;;;;;28.05;25.05;;;-0.60;99.90;;;;;;5094959;28;20450;-82
2021/12/23 04:17:30;;;;;;;28.88;25.75;;;-0.60;99.90;;;;;;5095507;28;20128;-82
2021/12/23 04:20:09;;;;;;;27.02;24.20;;;-0.60;99.90;;;;;;5103273;28;20123;-82
2021/12/23 04:22:35;;;;;;;26.17;23.38;;;-0.50;99.90;;;;;;5095292;28;20089;-83
2021/12/23 04:25:01;;;;;;;27.30;24.35;;;-0.60;99.90;;;;;;5095827;28;20047;-76
2021/12/23 04:27:26;;;;;;;26.95;24.08;;;-0.50;99.90;;;;;;5094552;28;20083;-82
2021/12/23 04:29:52;;;;;;;26.55;23.35;;;-0.50;99.90;;;;;;5094500;28;20036;-81
2021/12/23 04:32:18;;;;;;;27.13;24.20;;;-0.50;99.90;;;;;;5094350;28;20441;-82
2021/12/23 04:34:43;;;;;;;28.05;24.95;;;-0.50;99.90;;;;;;5095763;28;20545;-82
2021/12/23 04:37:09;;;;;;;25.98;23.25;;;-0.50;99.90;;;;;;5096346;28;20152;-81
2021/12/23 04:39:35;;;;;;;26.33;23.45;;;-0.50;99.90;;;;;;5108591;27;20079;-81
2021/12/23 04:42:00;;;;;;;28.20;24.67;;;-0.50;99.90;;;;;;5093436;28;20048;-81
2021/12/23 04:44:26;;;;;;;27.60;24.50;;;-0.40;99.90;;;;;;5094277;28;20039;-82
2021/12/23 04:46:52;;;;;;;27.38;24.35;;;-0.40;99.90;;;;;;5108276;28;20097;-82
2021/12/23 04:49:22;;;;;;;26.88;23.98;;;-0.40;99.90;;;;;;5095332;28;20131;-81
2021/12/23 04:51:47;;;;;;;27.13;22.85;;;-0.40;99.90;;;;;;5096927;28;20109;-81
2021/12/23 04:54:13;;;;;;;26.27;23.48;;;-0.40;99.90;;;;;;5103544;28;20401;-82
2021/12/23 04:56:39;;;;;;;27.02;24.17;;;-0.40;99.90;;;;;;5099045;27;20447;-83
2021/12/23 04:59:05;;;;;;;26.92;23.88;;;-0.40;99.90;;;;;;5102866;28;20039;-76
2021/12/23 05:01:32;;;;;;;26.52;23.73;;;-0.40;99.90;;;;;;5109475;28;20048;-81
2021/12/23 05:03:59;;;;;;;26.17;23.42;;;-0.40;99.90;;;;;;5094309;28;20090;-82
2021/12/23 05:06:24;;;;;;;27.17;24.20;;;-0.40;99.90;;;;;;5093507;28;20043;-82
2021/12/23 05:08:50;;;;;;;27.58;24.63;;;-0.40;99.90;;;;;;5094150;28;20040;-82
2021/12/23 05:11:16;;;;;;;28.30;24.30;;;-0.30;99.90;;;;;;5093429;28;20096;-82
2021/12/23 05:13:43;;;;;;;27.85;24.85;;;-0.30;99.90;;;;;;5093796;28;20047;-82
2021/12/23 05:16:09;;;;;;;28.45;25.33;;;-0.30;99.90;;;;;;5093320;28;20040;-81
2021/12/23 05:18:35;;;;;;;27.33;24.27;;;-0.30;99.90;;;;;;5096162;28;20742;-83
2021/12/23 05:21:02;;;;;;;28.42;25.48;;;-0.30;99.90;;;;;;5114261;28;20094;-83
2021/12/23 05:23:29;;;;;;;28.45;25.35;;;-0.30;99.90;;;;;;5104956;28;20058;-82
2021/12/23 05:25:55;;;;;;;29.65;26.45;;;-0.30;99.90;;;;;;5093844;28;20090;-82
2021/12/23 05:28:20;;;;;;;29.10;26.05;;;-0.20;99.90;;;;;;5093220;28;20044;-82
2021/12/23 05:30:46;;;;;;;32.03;28.23;;;-0.20;99.90;;;;;;5093941;28;20096;-82
2021/12/23 05:33:12;;;;;;;30.60;27.30;;;-0.30;99.90;;;;;;5092759;28;20106;-81
2021/12/23 05:35:38;;;;;;;30.60;27.05;;;-0.20;99.90;;;;;;5094039;28;20066;-82
2021/12/23 05:38:03;;;;;;;30.23;26.05;;;-0.20;99.90;;;;;;5093695;28;20530;-82
2021/12/23 05:40:29;;;;;;;32.38;26.63;;;-0.20;99.90;;;;;;5095168;28;20051;-81
2021/12/23 05:42:56;;;;;;;30.38;27.13;;;-0.20;99.90;;;;;;5093549;28;20075;-82
2021/12/23 05:45:23;;;;;;;29.45;26.02;;;-0.10;99.90;;;;;;5092119;28;20044;-82
2021/12/23 05:47:49;;;;;;;27.70;24.92;;;-0.20;99.90;;;;;;5093541;28;20189;-82
2021/12/23 05:50:18;;;;;;;29.00;25.48;;;-0.10;99.90;;;;;;5107276;28;20043;-82
2021/12/23 05:52:44;;;;;;;27.95;25.05;;;-0.10;99.90;;;;;;5113086;28;20136;-82
2021/12/23 05:55:12;;;;;;;29.55;26.35;;;-0.20;99.90;;;;;;5098259;28;20489;-82
2021/12/23 05:57:39;;;;;;;28.00;24.90;;;-0.10;99.90;;;;;;5092863;28;20116;-82
2021/12/23 06:00:12;;;;;;;27.27;24.42;;;-0.10;99.90;;;;;;5100352;28;20075;-82
2021/12/23 06:02:38;;;;;;;28.60;25.17;;;-0.10;99.90;;;;;;5092796;28;20150;-82
2021/12/23 06:05:05;;;;;;;27.67;24.67;;;-0.10;99.90;;;;;;5094114;28;20048;-82
2021/12/23 06:07:31;;;;;;;28.73;25.42;;;-0.10;99.90;;;;;;5092445;28;20040;-82
2021/12/23 06:09:57;;;;;;;26.95;24.05;;;-0.10;99.90;;;;;;5098385;28;20036;-82
2021/12/23 06:12:23;;;;;;;26.05;23.35;;;-0.10;99.90;;;;;;5091840;28;20044;-81
2021/12/23 06:14:48;;;;;;;27.30;24.40;;;-0.10;99.90;;;;;;5092671;28;20104;-82
2021/12/23 06:17:14;;;;;;;27.75;24.75;;;-0.10;99.90;;;;;;5092673;28;20055;-75
2021/12/23 06:19:40;;;;;;;27.63;24.63;;;-0.10;99.90;;;;;;5099527;28;20042;-83
2021/12/23 06:22:06;;;;;;;28.50;25.05;;;-0.10;99.90;;;;;;5093041;28;20044;-82
2021/12/23 06:24:32;;;;;;;28.70;25.17;;;-0.10;99.90;;;;;;5101994;28;20046;-83
2021/12/23 06:26:57;;;;;;;26.88;24.08;;;-0.10;99.90;;;;;;5112970;28;20042;-82
2021/12/23 06:29:23;;;;;;;27.65;24.65;;;-0.10;99.90;;;;;;5104525;28;20051;-83
2021/12/23 06:31:49;;;;;;;29.15;25.60;;;-0.10;99.90;;;;;;5091787;28;20485;-83
2021/12/23 06:34:15;;;;;;;28.90;24.92;;;-0.10;99.90;;;;;;5092950;28;20050;-80
2021/12/23 06:36:43;;;;;;;28.25;24.95;;;-0.10;99.90;;;;;;5092527;28;20461;-83
2021/12/23 06:39:09;;;;;;;28.55;24.85;;;-0.10;99.90;;;;;;5094433;28;20123;-84
2021/12/23 06:41:34;;;;;;;30.77;26.27;;;0.00;99.90;;;;;;5091645;28;20114;-83
2021/12/23 06:44:00;;;;;;;29.80;26.60;;;-0.10;99.90;;;;;;5092762;28;20557;-83
2021/12/23 06:46:26;;;;;;;33.25;27.25;;;-0.10;99.90;;;;;;5092117;28;20048;-82
2021/12/23 06:48:51;;;;;;;30.50;26.67;;;-0.10;99.90;;;;;;5092730;28;20398;-82
2021/12/23 06:51:17;;;;;;;29.95;25.90;;;-0.10;99.90;;;;;;5112890;28;20079;-78
2021/12/23 06:53:43;;;;;;;28.80;25.25;;;-0.10;99.90;;;;;;5094320;28;20451;-83
2021/12/23 06:56:11;;;;;;;28.88;25.70;;;-0.10;99.90;;;;;;5108605;28;20112;-83
2021/12/23 06:58:39;;;;;;;29.10;25.90;;;-0.10;99.90;;;;;;5093018;28;20056;-83
2021/12/23 07:01:05;;;;;;;30.52;25.83;;;-0.10;99.90;;;;;;5092456;28;20040;-82
2021/12/23 07:03:57;;;;;;;27.45;24.60;;;-0.10;99.90;;;;;;5091255;28;20079;-82
2021/12/23 07:06:22;;;;;;;30.85;26.40;;;-0.10;99.90;;;;;;5092035;28;20488;-83
2021/12/23 07:08:47;;;;;;;29.83;26.60;;;-0.10;99.90;;;;;;5102363;28;20089;-83
2021/12/23 07:11:13;;;;;;;33.15;28.27;;;0.00;99.90;;;;;;5095929;28;20051;-83
2021/12/23 07:13:39;;;;;;;35.42;30.23;;;0.00;99.90;;;;;;5091496;28;20109;-84
2021/12/23 07:16:05;;;;;;;33.05;29.48;;;0.00;99.90;;;;;;5092028;28;20089;-83
2021/12/23 07:18:30;;;;;;;33.30;28.33;;;0.00;99.90;;;;;;5101053;28;20051;-82
2021/12/23 07:20:56;;;;;;;31.88;27.55;;;0.00;99.90;;;;;;5106371;28;20380;-84
2021/12/23 07:23:22;;;;;;;32.60;27.90;;;0.00;99.90;;;;;;5092163;28;20123;-76
2021/12/23 07:25:47;;;;;;;31.85;28.33;;;0.00;99.90;;;;;;5091063;28;20036;-83
2021/12/23 07:28:13;;;;;;;31.92;27.92;;;0.00;99.90;;;;;;5091562;28;20040;-83
2021/12/23 07:30:39;;;;;;;32.53;28.27;;;0.00;99.90;;;;;;5093614;28;20165;-81
2021/12/23 07:33:05;;;;;;;34.42;29.73;;;0.00;99.90;;;;;;5095848;28;20040;-83
2021/12/23 07:35:30;;;;;;;32.85;27.75;;;0.00;99.90;;;;;;5096097;28;20075;-83
2021/12/23 07:37:59;;;;;;;33.78;29.15;;;0.10;99.90;;;;;;5107841;28;20044;-83
2021/12/23 07:40:25;;;;;;;32.50;28.95;;;0.00;99.90;;;;;;5095029;28;20079;-75
2021/12/23 07:42:56;;;;;;;33.25;28.75;;;0.00;99.90;;;;;;5095363;28;20083;-82
2021/12/23 07:45:25;;;;;;;32.05;28.08;;;0.10;99.90;;;;;;5095544;28;20129;-82
2021/12/23 07:47:50;;;;;;;34.00;28.77;;;0.10;99.90;;;;;;5077521;28;20140;-82
2021/12/23 07:50:16;;;;;;;33.63;29.30;;;0.10;99.90;;;;;;5095824;28;20122;-84
2021/12/23 07:52:42;;;;;;;35.17;29.67;;;0.10;99.90;;;;;;5113959;28;20126;-82
2021/12/23 07:55:08;;;;;;;37.05;29.88;;;0.10;99.90;;;;;;5097927;28;20039;-83
2021/12/23 07:57:34;;;;;;;36.70;30.80;;;0.10;99.90;;;;;;5096942;28;20036;-82
2021/12/23 08:00:00;;;;;;;34.03;30.20;;;0.10;99.90;;;;;;5094935;28;20051;-83
2021/12/23 08:02:26;;;;;;;36.97;31.83;;;0.20;99.90;;;;;;5099350;28;20043;-76
2021/12/23 08:04:52;;;;;;;38.20;30.23;;;0.10;99.90;;;;;;5083954;28;20094;-80
2021/12/23 08:07:18;;;;;;;34.78;30.33;;;0.20;99.90;;;;;;5098188;28;20075;-83
2021/12/23 08:09:44;;;;;;;34.10;30.33;;;0.20;99.90;;;;;;5105133;28;20442;-78
2021/12/23 08:12:10;;;;;;;37.75;31.70;;;0.20;99.90;;;;;;5095274;28;20113;-83
2021/12/23 08:14:35;;;;;;;37.22;30.88;;;0.30;99.90;;;;;;5105745;28;20089;-83
2021/12/23 08:17:01;;;;;;;37.80;32.13;;;0.30;99.90;;;;;;5115545;28;20044;-82
2021/12/23 08:19:27;;;;;;;38.50;31.50;;;0.30;99.90;;;;;;5105708;27;20048;-80
2021/12/23 08:21:53;;;;;;;37.65;32.35;;;0.30;99.90;;;;;;5093813;28;20059;-78
2021/12/23 08:24:18;;;;;;;39.58;32.85;;;0.30;99.90;;;;;;5102704;28;20050;-79
2021/12/23 08:26:50;;;;;;;38.70;33.22;;;0.30;99.90;;;;;;5114164;28;20489;-78
2021/12/23 08:29:18;;;;;;;39.97;33.75;;;0.30;99.90;;;;;;5108278;28;20036;-79
2021/12/23 08:31:44;;;;;;;40.53;32.97;;;0.30;99.90;;;;;;5090441;28;20052;-79
2021/12/23 08:34:09;;;;;;;40.20;33.00;;;0.40;99.90;;;;;;5085409;28;20093;-79
2021/12/23 08:36:36;;;;;;;41.10;34.25;;;0.30;99.90;;;;;;5114304;28;20043;-79
2021/12/23 08:39:03;;;;;;;42.92;36.00;;;0.40;99.90;;;;;;5111049;28;20047;-78
2021/12/23 08:41:28;;;;;;;44.97;36.42;;;0.40;99.90;;;;;;5109377;28;20043;-79
2021/12/23 08:43:54;;;;;;;43.97;35.83;;;0.40;99.90;;;;;;5112069;28;20051;-79
2021/12/23 08:46:20;;;;;;;45.30;36.75;;;0.40;99.90;;;;;;5092209;28;20510;-78
2021/12/23 08:48:47;;;;;;;44.90;36.45;;;0.40;99.90;;;;;;5093792;28;20129;-79
2021/12/23 08:51:13;;;;;;;45.67;37.25;;;0.40;99.90;;;;;;5093932;28;20476;-78
2021/12/23 08:53:39;;;;;;;46.63;37.05;;;0.40;99.90;;;;;;5092596;28;20036;-80
2021/12/23 08:56:08;;;;;;;44.10;36.67;;;0.40;99.90;;;;;;5093197;28;20094;-79
2021/12/23 08:58:35;;;;;;;44.03;36.03;;;0.40;99.90;;;;;;5093969;28;20055;-78
2021/12/23 09:01:00;;;;;;;49.25;38.30;;;0.40;99.90;;;;;;5087727;28;20056;-78
2021/12/23 09:03:26;;;;;;;45.55;36.13;;;0.40;99.90;;;;;;5085820;28;20119;-80
2021/12/23 09:05:52;;;;;;;45.17;36.53;;;0.40;99.90;;;;;;5088067;28;20071;-79
2021/12/23 09:08:18;;;;;;;44.83;37.20;;;0.40;99.90;;;;;;5090857;28;20040;-78
2021/12/23 09:10:43;;;;;;;45.38;36.42;;;0.40;99.90;;;;;;5093138;28;20047;-79
2021/12/23 09:13:09;;;;;;;44.47;36.20;;;0.40;99.90;;;;;;5095822;28;20036;-78
2021/12/23 09:15:35;;;;;;;46.78;37.00;;;0.50;99.90;;;;;;5094906;28;20402;-77
2021/12/23 09:18:01;;;;;;;44.80;36.72;;;0.40;99.90;;;;;;5088531;28;20040;-78
2021/12/23 09:20:27;;;;;;;47.53;37.35;;;0.50;99.90;;;;;;5089980;28;20052;-78
2021/12/23 09:22:53;;;;;;;47.83;37.65;;;0.50;99.90;;;;;;5091115;28;20044;-78
2021/12/23 09:25:29;;;;;;;46.40;36.50;;;0.50;99.90;;;;;;5098429;28;20046;-78
2021/12/23 09:28:12;;;;;;;47.13;37.60;;;0.50;99.90;;;;;;5110921;28;20048;-79
2021/12/23 09:33:24;;;;;;;49.05;38.00;;;0.50;99.90;;;;;;5089911;28;20081;-79
2021/12/23 09:35:51;;;;;;;48.88;38.47;;;0.50;99.90;;;;;;5087210;28;20641;-80
2021/12/23 09:38:19;;;;;;;47.42;38.08;;;0.50;99.90;;;;;;5098874;28;20040;-78
2021/12/23 09:40:46;;;;;;;48.30;39.17;;;0.50;99.90;;;;;;5101428;28;20487;-79
2021/12/23 09:43:13;;;;;;;50.03;41.13;;;0.50;99.90;;;;;;5089730;28;20090;-78
2021/12/23 09:45:41;;;;;;;49.80;39.42;;;0.50;99.90;;;;;;5089923;28;20044;-78
2021/12/23 09:48:07;;;;;;;51.35;39.92;;;0.60;99.90;;;;;;5097955;28;20497;-79
2021/12/23 09:50:39;;;;;;;52.88;39.10;;;0.60;99.90;;;;;;5090605;28;20047;-78
2021/12/23 09:53:06;;;;;;;49.20;38.63;;;0.60;99.90;;;;;;5089739;28;20044;-80
2021/12/23 09:55:34;;;;;;;48.10;38.03;;;0.60;99.90;;;;;;5090115;28;20509;-81
2021/12/23 09:58:02;;;;;;;49.97;39.15;;;0.60;99.90;;;;;;5101433;28;20079;-78
2021/12/23 10:00:31;;;;;;;50.03;39.35;;;0.70;99.90;;;;;;5091553;28;20479;-78
2021/12/23 10:02:58;;;;;;;50.35;39.05;;;0.70;99.90;;;;;;5088582;28;20048;-78
2021/12/23 10:05:29;;;;;;;52.08;40.25;;;0.70;99.90;;;;;;5090852;28;20401;-78
2021/12/23 10:07:55;;;;;;;;;;;0.70;99.90;;;;;;5079725;28;20048;-79
2021/12/23 10:10:28;;;;;;;47.03;36.53;;;0.70;99.90;;;;;;5089893;28;20319;-80
2021/12/23 10:38:27;;;;;;;52.28;39.85;;;0.80;99.90;;;;;;5090061;28;20044;-79
2021/12/23 10:40:59;;;;;;;51.97;39.95;;;0.80;99.90;;;;;;5107943;28;20546;-81
2021/12/23 10:43:32;;;;;;;55.50;41.78;;;0.80;99.90;;;;;;5098346;28;20059;-79
2021/12/23 10:46:03;;;;;;;51.50;39.83;;;0.80;99.90;;;;;;5088951;28;20040;-80
2021/12/23 10:48:31;;;;;;;;;;;0.90;99.90;;;;;;5100590;28;20064;-79
2021/12/23 10:51:05;;;;;;;56.72;42.42;;;0.80;99.90;;;;;;5102856;28;19923;-81
2021/12/23 10:53:51;;;;;;;53.15;40.78;;;0.90;99.90;;;;;;5097421;28;20059;-78
2021/12/23 10:59:19;;;;;;;58.03;41.33;;;0.90;99.90;;;;;;5089101;28;20127;-83
2021/12/23 11:02:17;;;;;;;55.53;41.50;;;1.00;99.90;;;;;;5104826;28;20461;-80
2021/12/23 11:05:19;;;;;;;57.28;42.80;;;1.00;99.90;;;;;;5104811;28;20036;-82
2021/12/23 11:08:12;;;;;;;58.00;43.20;;;1.00;99.90;;;;;;5073060;28;20098;-78
2021/12/23 11:39:03;;;;;;;56.35;40.80;;;1.10;99.90;;;;;;5081215;28;20056;-90
2021/12/23 11:43:57;;;;;;;57.33;42.00;;;1.10;99.90;;;;;;5093036;28;20055;-80
2021/12/23 11:46:42;;;;;;;55.15;40.17;;;1.10;99.90;;;;;;5072714;28;20044;-80
2021/12/23 11:49:12;;;;;;;57.03;42.80;;;1.10;99.90;;;;;;5076268;28;20068;-91
2021/12/23 11:54:07;;;;;;;56.97;41.75;;;1.20;99.90;;;;;;5111877;28;20135;-81
2021/12/23 11:56:38;;;;;;;54.88;41.00;;;1.20;99.90;;;;;;5090915;28;20448;-89
2021/12/23 11:59:05;;;;;;;55.72;40.63;;;1.20;99.90;;;;;;5072217;28;20222;-86
2021/12/23 12:01:44;;;;;;;52.85;39.45;;;1.30;99.90;;;;;;5071492;28;20048;-83
2021/12/23 12:04:15;;;;;;;55.17;40.60;;;1.20;99.90;;;;;;5086418;28;20035;-84
2021/12/23 12:06:46;;;;;;;58.38;41.88;;;1.30;99.90;;;;;;5104220;28;20048;-85
2021/12/23 12:09:16;;;;;;;55.33;39.97;;;1.20;99.90;;;;;;5093317;28;20044;-85
2021/12/23 12:12:06;;;;;;;52.88;40.85;;;1.30;99.90;;;;;;5095458;28;20040;-77
2021/12/23 12:14:41;;;;;;;54.10;41.40;;;1.30;99.90;;;;;;5071765;28;20048;-79
2021/12/23 12:17:25;;;;;;;56.38;39.75;;;1.30;99.90;;;;;;5077586;28;20078;-83
2021/12/23 12:20:21;;;;;;;53.33;39.90;;;1.30;99.90;;;;;;5092261;28;20063;-81
2021/12/23 12:22:59;;;;;;;55.85;41.47;;;1.30;99.90;;;;;;5103449;28;20182;-83
2021/12/23 12:25:24;;;;;;;59.67;41.63;;;1.30;99.90;;;;;;5099467;28;20052;-83
2021/12/23 12:27:56;;;;;;;59.88;40.90;;;1.30;99.90;;;;;;5083320;28;20048;-83
2021/12/23 12:30:49;;;;;;;58.55;40.85;;;1.30;99.90;;;;;;5097412;28;20055;-79
2021/12/23 12:33:24;;;;;;;54.78;41.08;;;1.30;99.90;;;;;;5095746;28;20048;-80
2021/12/23 12:36:02;;;;;;;59.38;43.00;;;1.30;99.90;;;;;;5092207;28;20040;-81
2021/12/23 12:38:31;;;;;;;58.60;42.15;;;1.30;99.90;;;;;;5098276;28;20055;-81
2021/12/23 12:41:18;;;;;;;58.83;42.72;;;1.30;99.90;;;;;;5091690;28;20556;-76
2021/12/23 12:43:47;;;;;;;57.60;41.40;;;1.30;99.90;;;;;;5085866;28;20060;-81
2021/12/23 12:46:50;;;;;;;58.75;41.17;;;1.30;99.90;;;;;;5099662;28;20114;-81
2021/12/23 12:49:28;;;;;;;58.17;41.28;;;1.30;99.90;;;;;;5079702;28;20056;-81
2021/12/23 12:52:10;;;;;;;55.83;42.10;;;1.30;99.90;;;;;;5106642;28;20508;-81
2021/12/23 12:54:51;;;;;;;58.00;42.10;;;1.30;99.90;;;;;;5115093;28;20040;-81
2021/12/23 12:57:18;;;;;;;58.78;41.13;;;1.30;99.90;;;;;;5107085;28;20068;-81
2021/12/23 12:59:46;;;;;;;56.00;41.13;;;1.30;99.90;;;;;;5101092;27;20083;-80
2021/12/23 13:02:21;;;;;;;53.22;39.72;;;1.40;99.90;;;;;;5095616;28;20480;-81
2021/12/23 13:04:57;;;;;;;54.58;41.13;;;1.40;99.90;;;;;;5093002;28;20132;-80
2021/12/23 13:07:30;;;;;;;56.38;40.25;;;1.40;99.90;;;;;;5073503;28;20131;-81
2021/12/23 13:10:05;;;;;;;55.55;40.72;;;1.40;99.90;;;;;;5075103;28;20044;-81
2021/12/23 13:12:57;;;;;;;55.00;41.00;;;1.40;99.90;;;;;;5105821;28;20048;-80
2021/12/23 13:15:28;;;;;;;55.63;40.88;;;1.40;99.90;;;;;;5084716;28;20041;-81
2021/12/23 13:18:07;;;;;;;57.40;40.72;;;1.40;99.90;;;;;;5110721;28;20079;-81
2021/12/23 13:20:47;;;;;;;52.65;39.15;;;1.40;99.90;;;;;;5114360;28;20092;-80
2021/12/23 13:23:43;;;;;;;55.03;40.57;;;1.40;99.90;;;;;;5078936;28;20454;-81
2021/12/23 13:26:13;;;;;;;57.17;40.33;;;1.30;99.90;;;;;;5110817;28;20071;-81
2021/12/23 13:28:44;;;;;;;54.42;39.70;;;1.30;99.90;;;;;;5095019;28;20052;-81
2021/12/23 13:31:25;;;;;;;53.40;39.67;;;1.40;99.90;;;;;;5078243;28;20036;-81
2021/12/23 13:33:54;;;;;;;58.50;42.13;;;1.40;99.90;;;;;;5090791;28;20111;-80
2021/12/23 13:36:31;;;;;;;58.83;42.45;;;1.40;99.90;;;;;;5102482;28;20079;-81
2021/12/23 13:38:58;;;;;;;54.85;40.00;;;1.30;99.90;;;;;;5104755;28;20451;-81
2021/12/23 13:41:27;;;;;;;55.58;40.10;;;1.40;99.90;;;;;;5105720;28;20461;-80
2021/12/23 13:43:59;;;;;;;55.22;39.47;;;1.40;99.90;;;;;;5108043;28;20043;-80
2021/12/23 13:46:28;;;;;;;51.15;38.72;;;1.30;99.90;;;;;;5104117;28;20241;-79
2021/12/23 13:48:56;;;;;;;54.28;39.10;;;1.30;99.90;;;;;;5113973;28;20059;-81
2021/12/23 13:51:25;;;;;;;53.47;40.53;;;1.40;99.90;;;;;;5102320;28;20044;-82
2021/12/23 13:54:07;;;;;;;53.50;39.70;;;1.30;99.90;;;;;;5092467;28;20115;-81